sensor_id;sensor_type;location;lat;lon;timestamp;P1;durP1;ratioP1;P2;durP2;ratioP2
2966;SDS011;1493;51.496;7.210;2023-02-24T00:00:58;10.90;;;3.07;;
2966;SDS011;1493;51.496;7.210;2023-02-24T00:03:33;9.27;;;3.23;;
2966;SDS011;1493;51.496;7.210;2023-02-24T00:06:01;8.13;;;2.83;;
2966;SDS011;1493;51.496;7.210;2023-02-24T00:08:35;10.27;;;3.27;;
2966;SDS011;1493;51.496;7.210;2023-02-24T00:11:05;12.03;;;3.43;;
2966;SDS011;1493;51.496;7.210;2023-02-24T00:13:33;12.97;;;4.90;;
2966;SDS011;1493;51.496;7.210;2023-02-24T00:16:01;15.43;;;4.10;;
2966;SDS011;1493;51.496;7.210;2023-02-24T00:18:29;12.33;;;4.70;;
2966;SDS011;1493;51.496;7.210;2023-02-24T00:21:00;10.87;;;4.10;;
2966;SDS011;1493;51.496;7.210;2023-02-24T00:23:32;16.60;;;4.40;;
2966;SDS011;1493;51.496;7.210;2023-02-24T00:26:02;10.20;;;4.10;;
2966;SDS011;1493;51.496;7.210;2023-02-24T00:28:30;11.23;;;4.93;;
2966;SDS011;1493;51.496;7.210;2023-02-24T00:31:01;16.20;;;5.13;;
2966;SDS011;1493;51.496;7.210;2023-02-24T00:33:28;11.63;;;4.70;;
2966;SDS011;1493;51.496;7.210;2023-02-24T00:36:02;15.77;;;5.90;;
2966;SDS011;1493;51.496;7.210;2023-02-24T00:38:31;8.10;;;5.13;;
2966;SDS011;1493;51.496;7.210;2023-02-24T00:41:06;16.63;;;5.37;;
2966;SDS011;1493;51.496;7.210;2023-02-24T00:43:33;14.23;;;5.60;;
2966;SDS011;1493;51.496;7.210;2023-02-24T00:46:02;13.67;;;6.27;;
2966;SDS011;1493;51.496;7.210;2023-02-24T00:48:35;11.53;;;5.10;;
2966;SDS011;1493;51.496;7.210;2023-02-24T00:51:04;16.07;;;5.93;;
2966;SDS011;1493;51.496;7.210;2023-02-24T00:53:31;15.93;;;5.70;;
2966;SDS011;1493;51.496;7.210;2023-02-24T00:55:58;17.43;;;5.90;;
2966;SDS011;1493;51.496;7.210;2023-02-24T00:58:27;15.53;;;4.90;;
2966;SDS011;1493;51.496;7.210;2023-02-24T01:00:55;13.53;;;5.30;;
2966;SDS011;1493;51.496;7.210;2023-02-24T01:03:23;15.97;;;6.13;;
2966;SDS011;1493;51.496;7.210;2023-02-24T01:05:51;11.73;;;4.47;;
2966;SDS011;1493;51.496;7.210;2023-02-24T01:08:18;9.70;;;5.00;;
2966;SDS011;1493;51.496;7.210;2023-02-24T01:10:53;12.90;;;4.50;;
2966;SDS011;1493;51.496;7.210;2023-02-24T01:13:43;18.40;;;4.23;;
2966;SDS011;1493;51.496;7.210;2023-02-24T01:16:09;17.07;;;4.90;;
2966;SDS011;1493;51.496;7.210;2023-02-24T01:18:38;18.43;;;3.80;;
2966;SDS011;1493;51.496;7.210;2023-02-24T01:21:05;12.30;;;5.10;;
2966;SDS011;1493;51.496;7.210;2023-02-24T01:23:32;16.60;;;3.47;;
2966;SDS011;1493;51.496;7.210;2023-02-24T01:26:01;14.23;;;3.07;;
2966;SDS011;1493;51.496;7.210;2023-02-24T01:28:28;20.20;;;5.03;;
2966;SDS011;1493;51.496;7.210;2023-02-24T01:31:00;14.10;;;3.63;;
2966;SDS011;1493;51.496;7.210;2023-02-24T01:33:28;7.40;;;2.93;;
2966;SDS011;1493;51.496;7.210;2023-02-24T01:36:06;12.60;;;2.93;;
2966;SDS011;1493;51.496;7.210;2023-02-24T01:38:34;12.90;;;3.67;;
2966;SDS011;1493;51.496;7.210;2023-02-24T01:41:03;12.77;;;3.80;;
2966;SDS011;1493;51.496;7.210;2023-02-24T01:43:30;19.93;;;3.70;;
2966;SDS011;1493;51.496;7.210;2023-02-24T01:45:58;32.40;;;4.77;;
2966;SDS011;1493;51.496;7.210;2023-02-24T01:48:26;14.40;;;4.63;;
2966;SDS011;1493;51.496;7.210;2023-02-24T01:50:55;20.27;;;3.90;;
2966;SDS011;1493;51.496;7.210;2023-02-24T01:53:23;10.77;;;3.97;;
2966;SDS011;1493;51.496;7.210;2023-02-24T01:55:50;13.47;;;3.53;;
2966;SDS011;1493;51.496;7.210;2023-02-24T01:58:18;17.30;;;4.10;;
2966;SDS011;1493;51.496;7.210;2023-02-24T02:00:49;19.57;;;4.70;;
2966;SDS011;1493;51.496;7.210;2023-02-24T02:03:21;12.80;;;3.97;;
2966;SDS011;1493;51.496;7.210;2023-02-24T02:05:53;17.73;;;3.60;;
2966;SDS011;1493;51.496;7.210;2023-02-24T02:08:25;11.30;;;2.90;;
2966;SDS011;1493;51.496;7.210;2023-02-24T02:10:53;10.60;;;3.50;;
2966;SDS011;1493;51.496;7.210;2023-02-24T02:13:24;10.97;;;3.20;;
2966;SDS011;1493;51.496;7.210;2023-02-24T02:15:59;10.10;;;2.70;;
2966;SDS011;1493;51.496;7.210;2023-02-24T02:18:35;13.43;;;3.10;;
2966;SDS011;1493;51.496;7.210;2023-02-24T02:30:32;13.00;;;3.67;;
2966;SDS011;1493;51.496;7.210;2023-02-24T02:36:26;8.73;;;2.17;;
2966;SDS011;1493;51.496;7.210;2023-02-24T02:39:00;14.20;;;5.40;;
2966;SDS011;1493;51.496;7.210;2023-02-24T02:41:38;11.23;;;3.23;;
2966;SDS011;1493;51.496;7.210;2023-02-24T02:44:18;12.63;;;2.77;;
2966;SDS011;1493;51.496;7.210;2023-02-24T02:46:50;7.83;;;2.57;;
2966;SDS011;1493;51.496;7.210;2023-02-24T02:49:25;11.47;;;2.87;;
2966;SDS011;1493;51.496;7.210;2023-02-24T02:51:57;13.57;;;2.70;;
2966;SDS011;1493;51.496;7.210;2023-02-24T02:54:32;5.27;;;2.17;;
2966;SDS011;1493;51.496;7.210;2023-02-24T02:57:10;15.27;;;3.10;;
2966;SDS011;1493;51.496;7.210;2023-02-24T02:59:42;9.30;;;2.90;;
2966;SDS011;1493;51.496;7.210;2023-02-24T03:02:14;19.53;;;5.83;;
2966;SDS011;1493;51.496;7.210;2023-02-24T03:04:48;13.10;;;3.60;;
2966;SDS011;1493;51.496;7.210;2023-02-24T03:07:16;12.00;;;2.93;;
2966;SDS011;1493;51.496;7.210;2023-02-24T03:09:45;17.53;;;2.80;;
2966;SDS011;1493;51.496;7.210;2023-02-24T03:12:17;16.10;;;2.50;;
2966;SDS011;1493;51.496;7.210;2023-02-24T03:14:47;10.33;;;2.27;;
2966;SDS011;1493;51.496;7.210;2023-02-24T03:17:18;8.50;;;3.00;;
2966;SDS011;1493;51.496;7.210;2023-02-24T03:19:49;7.77;;;2.50;;
2966;SDS011;1493;51.496;7.210;2023-02-24T03:22:20;10.10;;;3.30;;
2966;SDS011;1493;51.496;7.210;2023-02-24T03:24:53;12.27;;;2.27;;
2966;SDS011;1493;51.496;7.210;2023-02-24T03:27:22;11.93;;;3.67;;
2966;SDS011;1493;51.496;7.210;2023-02-24T03:29:54;11.47;;;2.67;;
2966;SDS011;1493;51.496;7.210;2023-02-24T03:32:25;11.83;;;3.47;;
2966;SDS011;1493;51.496;7.210;2023-02-24T03:34:58;9.00;;;2.60;;
2966;SDS011;1493;51.496;7.210;2023-02-24T03:37:29;11.67;;;2.63;;
2966;SDS011;1493;51.496;7.210;2023-02-24T03:39:58;10.07;;;3.07;;
2966;SDS011;1493;51.496;7.210;2023-02-24T03:42:35;11.60;;;2.63;;
2966;SDS011;1493;51.496;7.210;2023-02-24T03:45:05;10.27;;;2.70;;
2966;SDS011;1493;51.496;7.210;2023-02-24T03:47:34;10.57;;;2.97;;
2966;SDS011;1493;51.496;7.210;2023-02-24T03:50:08;16.83;;;3.53;;
2966;SDS011;1493;51.496;7.210;2023-02-24T03:52:38;16.33;;;3.30;;
2966;SDS011;1493;51.496;7.210;2023-02-24T03:55:15;13.73;;;4.23;;
2966;SDS011;1493;51.496;7.210;2023-02-24T03:57:55;9.93;;;3.87;;
2966;SDS011;1493;51.496;7.210;2023-02-24T04:00:36;12.37;;;4.17;;
2966;SDS011;1493;51.496;7.210;2023-02-24T04:03:15;14.93;;;3.77;;
2966;SDS011;1493;51.496;7.210;2023-02-24T04:05:54;22.60;;;5.50;;
2966;SDS011;1493;51.496;7.210;2023-02-24T04:08:32;13.67;;;4.07;;
2966;SDS011;1493;51.496;7.210;2023-02-24T04:11:06;18.90;;;4.57;;
2966;SDS011;1493;51.496;7.210;2023-02-24T04:13:40;13.67;;;4.43;;
2966;SDS011;1493;51.496;7.210;2023-02-24T04:16:11;14.73;;;4.63;;
2966;SDS011;1493;51.496;7.210;2023-02-24T04:18:43;11.27;;;4.40;;
2966;SDS011;1493;51.496;7.210;2023-02-24T04:21:15;12.13;;;4.00;;
2966;SDS011;1493;51.496;7.210;2023-02-24T04:23:44;9.50;;;4.40;;
2966;SDS011;1493;51.496;7.210;2023-02-24T04:26:13;14.27;;;4.67;;
2966;SDS011;1493;51.496;7.210;2023-02-24T04:28:43;22.30;;;5.83;;
2966;SDS011;1493;51.496;7.210;2023-02-24T04:31:12;13.67;;;4.50;;
2966;SDS011;1493;51.496;7.210;2023-02-24T04:33:42;17.77;;;4.50;;
2966;SDS011;1493;51.496;7.210;2023-02-24T04:36:15;9.20;;;4.07;;
2966;SDS011;1493;51.496;7.210;2023-02-24T04:38:43;13.73;;;6.07;;
2966;SDS011;1493;51.496;7.210;2023-02-24T04:41:11;14.23;;;5.80;;
2966;SDS011;1493;51.496;7.210;2023-02-24T04:43:42;11.00;;;3.90;;
2966;SDS011;1493;51.496;7.210;2023-02-24T04:46:09;10.80;;;4.37;;
2966;SDS011;1493;51.496;7.210;2023-02-24T04:48:37;14.17;;;3.47;;
2966;SDS011;1493;51.496;7.210;2023-02-24T04:51:04;11.87;;;4.63;;
2966;SDS011;1493;51.496;7.210;2023-02-24T04:53:32;16.33;;;4.30;;
2966;SDS011;1493;51.496;7.210;2023-02-24T04:56:02;12.37;;;6.37;;
2966;SDS011;1493;51.496;7.210;2023-02-24T04:58:33;12.20;;;4.63;;
2966;SDS011;1493;51.496;7.210;2023-02-24T05:01:04;19.67;;;5.30;;
2966;SDS011;1493;51.496;7.210;2023-02-24T05:03:34;10.70;;;5.03;;
2966;SDS011;1493;51.496;7.210;2023-02-24T05:06:02;12.17;;;5.20;;
2966;SDS011;1493;51.496;7.210;2023-02-24T05:08:30;14.00;;;6.13;;
2966;SDS011;1493;51.496;7.210;2023-02-24T05:10:59;13.40;;;5.40;;
2966;SDS011;1493;51.496;7.210;2023-02-24T05:13:28;20.70;;;5.97;;
2966;SDS011;1493;51.496;7.210;2023-02-24T05:15:56;14.30;;;5.90;;
2966;SDS011;1493;51.496;7.210;2023-02-24T05:18:25;16.33;;;5.47;;
2966;SDS011;1493;51.496;7.210;2023-02-24T05:20:55;17.57;;;6.50;;
2966;SDS011;1493;51.496;7.210;2023-02-24T05:23:42;14.03;;;5.53;;
2966;SDS011;1493;51.496;7.210;2023-02-24T05:26:11;17.33;;;6.37;;
2966;SDS011;1493;51.496;7.210;2023-02-24T05:28:41;11.63;;;5.17;;
2966;SDS011;1493;51.496;7.210;2023-02-24T05:31:11;16.70;;;5.67;;
2966;SDS011;1493;51.496;7.210;2023-02-24T05:33:39;13.40;;;5.40;;
2966;SDS011;1493;51.496;7.210;2023-02-24T05:36:08;14.70;;;5.13;;
2966;SDS011;1493;51.496;7.210;2023-02-24T05:38:40;14.50;;;6.47;;
2966;SDS011;1493;51.496;7.210;2023-02-24T05:41:08;17.00;;;5.53;;
2966;SDS011;1493;51.496;7.210;2023-02-24T05:43:41;25.67;;;6.30;;
2966;SDS011;1493;51.496;7.210;2023-02-24T05:46:12;9.00;;;4.17;;
2966;SDS011;1493;51.496;7.210;2023-02-24T05:48:39;12.40;;;4.63;;
2966;SDS011;1493;51.496;7.210;2023-02-24T05:51:06;13.97;;;4.13;;
2966;SDS011;1493;51.496;7.210;2023-02-24T05:53:36;12.43;;;4.40;;
2966;SDS011;1493;51.496;7.210;2023-02-24T05:56:06;13.07;;;4.53;;
2966;SDS011;1493;51.496;7.210;2023-02-24T05:58:33;10.30;;;4.47;;
2966;SDS011;1493;51.496;7.210;2023-02-24T06:01:07;14.43;;;5.63;;
2966;SDS011;1493;51.496;7.210;2023-02-24T06:03:40;13.23;;;4.77;;
2966;SDS011;1493;51.496;7.210;2023-02-24T06:06:10;15.50;;;5.80;;
2966;SDS011;1493;51.496;7.210;2023-02-24T06:08:37;15.90;;;5.47;;
2966;SDS011;1493;51.496;7.210;2023-02-24T06:11:14;19.80;;;4.20;;
2966;SDS011;1493;51.496;7.210;2023-02-24T06:13:43;6.07;;;3.27;;
2966;SDS011;1493;51.496;7.210;2023-02-24T06:16:12;12.63;;;4.60;;
2966;SDS011;1493;51.496;7.210;2023-02-24T06:18:39;7.03;;;3.37;;
2966;SDS011;1493;51.496;7.210;2023-02-24T06:21:06;22.03;;;4.83;;
2966;SDS011;1493;51.496;7.210;2023-02-24T06:23:33;12.80;;;5.17;;
2966;SDS011;1493;51.496;7.210;2023-02-24T06:26:00;9.17;;;3.80;;
2966;SDS011;1493;51.496;7.210;2023-02-24T06:28:29;16.20;;;5.67;;
2966;SDS011;1493;51.496;7.210;2023-02-24T06:30:57;8.23;;;4.13;;
2966;SDS011;1493;51.496;7.210;2023-02-24T06:33:31;11.30;;;4.38;;
2966;SDS011;1493;51.496;7.210;2023-02-24T06:35:58;12.43;;;4.80;;
2966;SDS011;1493;51.496;7.210;2023-02-24T06:38:28;9.93;;;4.10;;
2966;SDS011;1493;51.496;7.210;2023-02-24T06:40:55;11.20;;;4.67;;
2966;SDS011;1493;51.496;7.210;2023-02-24T06:43:22;8.60;;;5.00;;
2966;SDS011;1493;51.496;7.210;2023-02-24T06:45:51;10.70;;;3.80;;
2966;SDS011;1493;51.496;7.210;2023-02-24T06:48:18;10.73;;;3.53;;
2966;SDS011;1493;51.496;7.210;2023-02-24T06:50:47;12.27;;;4.97;;
2966;SDS011;1493;51.496;7.210;2023-02-24T06:53:15;10.50;;;3.20;;
2966;SDS011;1493;51.496;7.210;2023-02-24T06:55:42;10.40;;;2.77;;
2966;SDS011;1493;51.496;7.210;2023-02-24T06:58:13;18.67;;;4.47;;
2966;SDS011;1493;51.496;7.210;2023-02-24T07:00:42;9.13;;;3.10;;
2966;SDS011;1493;51.496;7.210;2023-02-24T07:03:22;9.17;;;2.53;;
2966;SDS011;1493;51.496;7.210;2023-02-24T07:06:03;11.70;;;2.70;;
2966;SDS011;1493;51.496;7.210;2023-02-24T07:08:44;7.27;;;2.40;;
2966;SDS011;1493;51.496;7.210;2023-02-24T07:11:12;10.77;;;3.13;;
2966;SDS011;1493;51.496;7.210;2023-02-24T07:13:41;15.37;;;3.10;;
2966;SDS011;1493;51.496;7.210;2023-02-24T07:16:08;12.30;;;3.50;;
2966;SDS011;1493;51.496;7.210;2023-02-24T07:18:37;10.57;;;3.50;;
2966;SDS011;1493;51.496;7.210;2023-02-24T07:21:05;9.10;;;2.93;;
2966;SDS011;1493;51.496;7.210;2023-02-24T07:23:35;9.43;;;3.70;;
2966;SDS011;1493;51.496;7.210;2023-02-24T07:26:05;13.83;;;4.87;;
2966;SDS011;1493;51.496;7.210;2023-02-24T07:28:36;10.47;;;2.80;;
2966;SDS011;1493;51.496;7.210;2023-02-24T07:31:04;9.30;;;3.17;;
2966;SDS011;1493;51.496;7.210;2023-02-24T07:33:33;10.30;;;2.97;;
2966;SDS011;1493;51.496;7.210;2023-02-24T07:36:02;7.93;;;3.20;;
2966;SDS011;1493;51.496;7.210;2023-02-24T07:38:33;15.17;;;3.23;;
2966;SDS011;1493;51.496;7.210;2023-02-24T07:41:01;10.13;;;3.33;;
2966;SDS011;1493;51.496;7.210;2023-02-24T07:43:28;10.30;;;3.53;;
2966;SDS011;1493;51.496;7.210;2023-02-24T07:45:54;11.67;;;3.53;;
2966;SDS011;1493;51.496;7.210;2023-02-24T07:48:22;7.57;;;2.80;;
2966;SDS011;1493;51.496;7.210;2023-02-24T07:50:49;7.23;;;2.50;;
2966;SDS011;1493;51.496;7.210;2023-02-24T07:53:18;12.90;;;3.70;;
2966;SDS011;1493;51.496;7.210;2023-02-24T07:55:45;9.27;;;2.87;;
2966;SDS011;1493;51.496;7.210;2023-02-24T07:58:11;10.80;;;2.50;;
2966;SDS011;1493;51.496;7.210;2023-02-24T08:00:38;9.77;;;3.33;;
2966;SDS011;1493;51.496;7.210;2023-02-24T08:03:23;8.90;;;2.67;;
2966;SDS011;1493;51.496;7.210;2023-02-24T08:05:53;8.10;;;3.17;;
2966;SDS011;1493;51.496;7.210;2023-02-24T08:08:25;12.77;;;3.13;;
2966;SDS011;1493;51.496;7.210;2023-02-24T08:10:52;9.80;;;2.43;;
2966;SDS011;1493;51.496;7.210;2023-02-24T08:13:28;6.40;;;1.83;;
2966;SDS011;1493;51.496;7.210;2023-02-24T08:16:03;5.50;;;2.17;;
2966;SDS011;1493;51.496;7.210;2023-02-24T08:18:31;12.60;;;2.90;;
2966;SDS011;1493;51.496;7.210;2023-02-24T08:21:01;10.60;;;1.90;;
2966;SDS011;1493;51.496;7.210;2023-02-24T08:23:30;6.83;;;1.80;;
2966;SDS011;1493;51.496;7.210;2023-02-24T08:26:00;11.43;;;2.03;;
2966;SDS011;1493;51.496;7.210;2023-02-24T08:28:28;3.70;;;2.27;;
2966;SDS011;1493;51.496;7.210;2023-02-24T08:30:55;17.93;;;2.80;;
2966;SDS011;1493;51.496;7.210;2023-02-24T08:33:23;8.40;;;2.63;;
2966;SDS011;1493;51.496;7.210;2023-02-24T08:35:54;11.73;;;2.47;;
2966;SDS011;1493;51.496;7.210;2023-02-24T08:38:25;7.57;;;2.43;;
2966;SDS011;1493;51.496;7.210;2023-02-24T08:41:05;12.23;;;4.03;;
2966;SDS011;1493;51.496;7.210;2023-02-24T08:43:38;8.70;;;2.67;;
2966;SDS011;1493;51.496;7.210;2023-02-24T08:46:12;7.40;;;2.30;;
2966;SDS011;1493;51.496;7.210;2023-02-24T08:48:43;12.67;;;2.60;;
2966;SDS011;1493;51.496;7.210;2023-02-24T08:51:12;4.43;;;2.10;;
2966;SDS011;1493;51.496;7.210;2023-02-24T08:53:42;10.03;;;2.30;;
2966;SDS011;1493;51.496;7.210;2023-02-24T08:56:12;8.97;;;2.40;;
2966;SDS011;1493;51.496;7.210;2023-02-24T08:58:48;8.40;;;2.67;;
2966;SDS011;1493;51.496;7.210;2023-02-24T09:01:21;6.90;;;2.70;;
2966;SDS011;1493;51.496;7.210;2023-02-24T09:03:51;11.77;;;3.07;;
2966;SDS011;1493;51.496;7.210;2023-02-24T09:06:24;8.20;;;2.37;;
2966;SDS011;1493;51.496;7.210;2023-02-24T09:09:00;14.70;;;2.93;;
2966;SDS011;1493;51.496;7.210;2023-02-24T09:11:48;3.20;;;1.67;;
2966;SDS011;1493;51.496;7.210;2023-02-24T09:14:19;8.20;;;2.03;;
2966;SDS011;1493;51.496;7.210;2023-02-24T09:16:48;11.17;;;2.70;;
2966;SDS011;1493;51.496;7.210;2023-02-24T09:19:28;10.10;;;2.17;;
2966;SDS011;1493;51.496;7.210;2023-02-24T09:22:13;6.63;;;2.10;;
2966;SDS011;1493;51.496;7.210;2023-02-24T09:24:55;12.50;;;2.67;;
2966;SDS011;1493;51.496;7.210;2023-02-24T09:27:43;13.10;;;3.10;;
2966;SDS011;1493;51.496;7.210;2023-02-24T09:30:12;8.60;;;3.00;;
2966;SDS011;1493;51.496;7.210;2023-02-24T09:32:59;11.50;;;3.93;;
2966;SDS011;1493;51.496;7.210;2023-02-24T09:35:30;14.30;;;3.60;;
2966;SDS011;1493;51.496;7.210;2023-02-24T09:38:00;11.07;;;3.13;;
2966;SDS011;1493;51.496;7.210;2023-02-24T09:40:30;11.67;;;2.90;;
2966;SDS011;1493;51.496;7.210;2023-02-24T09:43:07;11.43;;;3.97;;
2966;SDS011;1493;51.496;7.210;2023-02-24T09:45:43;8.83;;;3.00;;
2966;SDS011;1493;51.496;7.210;2023-02-24T09:48:40;8.27;;;3.10;;
2966;SDS011;1493;51.496;7.210;2023-02-24T09:51:15;11.53;;;2.73;;
2966;SDS011;1493;51.496;7.210;2023-02-24T09:53:46;11.30;;;3.33;;
2966;SDS011;1493;51.496;7.210;2023-02-24T09:56:19;11.83;;;3.60;;
2966;SDS011;1493;51.496;7.210;2023-02-24T09:59:04;10.70;;;2.93;;
2966;SDS011;1493;51.496;7.210;2023-02-24T10:01:41;7.90;;;2.77;;
2966;SDS011;1493;51.496;7.210;2023-02-24T10:04:29;11.47;;;3.03;;
2966;SDS011;1493;51.496;7.210;2023-02-24T10:07:06;12.53;;;3.30;;
2966;SDS011;1493;51.496;7.210;2023-02-24T10:09:40;23.33;;;2.90;;
2966;SDS011;1493;51.496;7.210;2023-02-24T10:12:12;6.53;;;2.77;;
2966;SDS011;1493;51.496;7.210;2023-02-24T10:14:46;16.53;;;3.87;;
2966;SDS011;1493;51.496;7.210;2023-02-24T10:17:18;14.13;;;3.83;;
2966;SDS011;1493;51.496;7.210;2023-02-24T10:19:50;6.77;;;2.50;;
2966;SDS011;1493;51.496;7.210;2023-02-24T10:22:25;13.33;;;3.37;;
2966;SDS011;1493;51.496;7.210;2023-02-24T10:25:00;11.53;;;2.70;;
2966;SDS011;1493;51.496;7.210;2023-02-24T10:27:40;8.40;;;2.83;;
2966;SDS011;1493;51.496;7.210;2023-02-24T10:30:27;3.37;;;2.20;;
2966;SDS011;1493;51.496;7.210;2023-02-24T10:33:05;7.60;;;2.93;;
2966;SDS011;1493;51.496;7.210;2023-02-24T10:35:43;11.83;;;2.30;;
2966;SDS011;1493;51.496;7.210;2023-02-24T10:38:10;7.10;;;2.10;;
2966;SDS011;1493;51.496;7.210;2023-02-24T10:40:43;7.77;;;2.50;;
2966;SDS011;1493;51.496;7.210;2023-02-24T10:43:17;15.43;;;3.77;;
2966;SDS011;1493;51.496;7.210;2023-02-24T10:45:55;7.80;;;2.63;;
2966;SDS011;1493;51.496;7.210;2023-02-24T10:48:31;9.30;;;3.40;;
2966;SDS011;1493;51.496;7.210;2023-02-24T10:51:06;12.40;;;3.03;;
2966;SDS011;1493;51.496;7.210;2023-02-24T10:53:42;9.30;;;2.83;;
2966;SDS011;1493;51.496;7.210;2023-02-24T10:56:17;18.00;;;3.67;;
2966;SDS011;1493;51.496;7.210;2023-02-24T10:59:08;12.23;;;2.70;;
2966;SDS011;1493;51.496;7.210;2023-02-24T11:02:14;6.37;;;2.73;;
2966;SDS011;1493;51.496;7.210;2023-02-24T11:04:53;7.93;;;2.80;;
2966;SDS011;1493;51.496;7.210;2023-02-24T11:07:40;11.10;;;3.37;;
2966;SDS011;1493;51.496;7.210;2023-02-24T11:10:18;15.03;;;3.47;;
2966;SDS011;1493;51.496;7.210;2023-02-24T11:12:51;13.93;;;3.47;;
2966;SDS011;1493;51.496;7.210;2023-02-24T11:15:41;10.33;;;3.47;;
2966;SDS011;1493;51.496;7.210;2023-02-24T11:18:28;10.30;;;4.33;;
2966;SDS011;1493;51.496;7.210;2023-02-24T11:20:57;12.80;;;3.63;;
2966;SDS011;1493;51.496;7.210;2023-02-24T11:23:27;8.10;;;3.27;;
2966;SDS011;1493;51.496;7.210;2023-02-24T11:25:58;9.17;;;3.70;;
2966;SDS011;1493;51.496;7.210;2023-02-24T11:28:32;11.57;;;3.40;;
2966;SDS011;1493;51.496;7.210;2023-02-24T11:31:19;11.70;;;3.53;;
2966;SDS011;1493;51.496;7.210;2023-02-24T11:33:59;8.37;;;3.50;;
2966;SDS011;1493;51.496;7.210;2023-02-24T11:36:36;9.77;;;3.90;;
2966;SDS011;1493;51.496;7.210;2023-02-24T11:39:15;14.23;;;4.73;;
2966;SDS011;1493;51.496;7.210;2023-02-24T11:41:57;14.17;;;5.00;;
2966;SDS011;1493;51.496;7.210;2023-02-24T11:44:28;13.07;;;4.23;;
2966;SDS011;1493;51.496;7.210;2023-02-24T11:46:59;10.10;;;4.43;;
2966;SDS011;1493;51.496;7.210;2023-02-24T11:49:35;13.90;;;4.93;;
2966;SDS011;1493;51.496;7.210;2023-02-24T11:52:12;9.63;;;4.87;;
2966;SDS011;1493;51.496;7.210;2023-02-24T11:54:43;12.77;;;4.77;;
2966;SDS011;1493;51.496;7.210;2023-02-24T11:57:15;13.47;;;5.80;;
2966;SDS011;1493;51.496;7.210;2023-02-24T11:59:47;9.73;;;4.80;;
2966;SDS011;1493;51.496;7.210;2023-02-24T12:02:25;9.63;;;5.17;;
2966;SDS011;1493;51.496;7.210;2023-02-24T12:05:02;17.73;;;5.50;;
2966;SDS011;1493;51.496;7.210;2023-02-24T12:07:37;19.03;;;5.10;;
2966;SDS011;1493;51.496;7.210;2023-02-24T12:10:12;11.37;;;4.43;;
2966;SDS011;1493;51.496;7.210;2023-02-24T12:12:43;12.20;;;5.20;;
2966;SDS011;1493;51.496;7.210;2023-02-24T12:15:18;18.67;;;5.93;;
2966;SDS011;1493;51.496;7.210;2023-02-24T12:17:52;8.67;;;4.87;;
2966;SDS011;1493;51.496;7.210;2023-02-24T12:20:29;18.60;;;5.90;;
2966;SDS011;1493;51.496;7.210;2023-02-24T12:23:01;16.03;;;5.50;;
2966;SDS011;1493;51.496;7.210;2023-02-24T12:25:37;16.43;;;5.73;;
2966;SDS011;1493;51.496;7.210;2023-02-24T12:28:17;15.57;;;5.57;;
2966;SDS011;1493;51.496;7.210;2023-02-24T12:30:58;12.53;;;6.33;;
2966;SDS011;1493;51.496;7.210;2023-02-24T12:33:43;8.83;;;5.50;;
2966;SDS011;1493;51.496;7.210;2023-02-24T12:36:22;14.60;;;7.50;;
2966;SDS011;1493;51.496;7.210;2023-02-24T12:38:59;12.93;;;6.03;;
2966;SDS011;1493;51.496;7.210;2023-02-24T12:41:40;15.10;;;7.80;;
2966;SDS011;1493;51.496;7.210;2023-02-24T12:44:18;15.27;;;6.37;;
2966;SDS011;1493;51.496;7.210;2023-02-24T12:46:56;15.43;;;6.93;;
2966;SDS011;1493;51.496;7.210;2023-02-24T12:49:34;9.50;;;5.60;;
2966;SDS011;1493;51.496;7.210;2023-02-24T12:52:17;13.13;;;6.53;;
2966;SDS011;1493;51.496;7.210;2023-02-24T12:54:54;9.93;;;7.10;;
2966;SDS011;1493;51.496;7.210;2023-02-24T12:57:33;14.80;;;6.63;;
2966;SDS011;1493;51.496;7.210;2023-02-24T13:00:08;13.50;;;7.23;;
2966;SDS011;1493;51.496;7.210;2023-02-24T13:02:42;17.50;;;9.97;;
2966;SDS011;1493;51.496;7.210;2023-02-24T13:05:18;14.10;;;8.90;;
2966;SDS011;1493;51.496;7.210;2023-02-24T13:07:56;18.20;;;9.10;;
2966;SDS011;1493;51.496;7.210;2023-02-24T13:10:45;15.73;;;7.90;;
2966;SDS011;1493;51.496;7.210;2023-02-24T13:13:15;18.07;;;8.30;;
2966;SDS011;1493;51.496;7.210;2023-02-24T13:15:49;20.23;;;8.73;;
2966;SDS011;1493;51.496;7.210;2023-02-24T13:18:24;15.03;;;7.60;;
2966;SDS011;1493;51.496;7.210;2023-02-24T13:21:03;16.23;;;8.27;;
2966;SDS011;1493;51.496;7.210;2023-02-24T13:23:33;23.53;;;8.83;;
2966;SDS011;1493;51.496;7.210;2023-02-24T13:26:01;14.87;;;8.43;;
2966;SDS011;1493;51.496;7.210;2023-02-24T13:28:31;18.23;;;8.77;;
2966;SDS011;1493;51.496;7.210;2023-02-24T13:31:05;19.70;;;7.33;;
2966;SDS011;1493;51.496;7.210;2023-02-24T13:33:48;10.90;;;8.00;;
2966;SDS011;1493;51.496;7.210;2023-02-24T13:36:17;19.43;;;8.43;;
2966;SDS011;1493;51.496;7.210;2023-02-24T13:38:47;15.90;;;9.30;;
2966;SDS011;1493;51.496;7.210;2023-02-24T13:41:22;20.43;;;9.53;;
2966;SDS011;1493;51.496;7.210;2023-02-24T13:44:02;19.40;;;10.80;;
2966;SDS011;1493;51.496;7.210;2023-02-24T13:46:48;16.60;;;11.33;;
2966;SDS011;1493;51.496;7.210;2023-02-24T13:49:42;19.80;;;12.93;;
2966;SDS011;1493;51.496;7.210;2023-02-24T13:52:19;18.90;;;12.60;;
2966;SDS011;1493;51.496;7.210;2023-02-24T13:55:13;18.33;;;11.67;;
2966;SDS011;1493;51.496;7.210;2023-02-24T13:57:55;20.47;;;12.40;;
2966;SDS011;1493;51.496;7.210;2023-02-24T14:00:32;20.23;;;13.47;;
2966;SDS011;1493;51.496;7.210;2023-02-24T14:03:10;22.13;;;14.37;;
2966;SDS011;1493;51.496;7.210;2023-02-24T14:05:42;21.23;;;14.40;;
2966;SDS011;1493;51.496;7.210;2023-02-24T14:08:12;25.43;;;14.67;;
2966;SDS011;1493;51.496;7.210;2023-02-24T14:10:46;25.67;;;16.30;;
2966;SDS011;1493;51.496;7.210;2023-02-24T14:13:21;19.80;;;13.93;;
2966;SDS011;1493;51.496;7.210;2023-02-24T14:15:51;21.97;;;14.10;;
2966;SDS011;1493;51.496;7.210;2023-02-24T14:18:21;17.33;;;13.60;;
2966;SDS011;1493;51.496;7.210;2023-02-24T14:20:49;27.90;;;15.83;;
2966;SDS011;1493;51.496;7.210;2023-02-24T14:23:19;23.07;;;15.60;;
2966;SDS011;1493;51.496;7.210;2023-02-24T14:25:50;22.13;;;15.43;;
2966;SDS011;1493;51.496;7.210;2023-02-24T14:28:20;22.60;;;16.03;;
2966;SDS011;1493;51.496;7.210;2023-02-24T14:30:53;24.27;;;16.10;;
2966;SDS011;1493;51.496;7.210;2023-02-24T14:33:24;21.13;;;15.57;;
2966;SDS011;1493;51.496;7.210;2023-02-24T14:35:54;25.33;;;17.80;;
2966;SDS011;1493;51.496;7.210;2023-02-24T14:38:31;21.03;;;16.33;;
2966;SDS011;1493;51.496;7.210;2023-02-24T14:41:03;28.03;;;18.37;;
2966;SDS011;1493;51.496;7.210;2023-02-24T14:43:31;25.60;;;17.40;;
2966;SDS011;1493;51.496;7.210;2023-02-24T14:46:06;40.57;;;20.63;;
2966;SDS011;1493;51.496;7.210;2023-02-24T14:48:34;26.50;;;21.00;;
2966;SDS011;1493;51.496;7.210;2023-02-24T14:51:01;32.07;;;22.60;;
2966;SDS011;1493;51.496;7.210;2023-02-24T14:53:31;29.03;;;20.10;;
2966;SDS011;1493;51.496;7.210;2023-02-24T14:56:08;28.17;;;21.07;;
2966;SDS011;1493;51.496;7.210;2023-02-24T14:58:39;28.40;;;20.10;;
2966;SDS011;1493;51.496;7.210;2023-02-24T15:01:13;32.50;;;21.83;;
2966;SDS011;1493;51.496;7.210;2023-02-24T15:03:46;25.53;;;17.87;;
2966;SDS011;1493;51.496;7.210;2023-02-24T15:06:17;33.33;;;18.53;;
2966;SDS011;1493;51.496;7.210;2023-02-24T15:08:49;31.03;;;17.93;;
2966;SDS011;1493;51.496;7.210;2023-02-24T15:11:24;26.30;;;17.30;;
2966;SDS011;1493;51.496;7.210;2023-02-24T15:13:54;23.47;;;17.27;;
2966;SDS011;1493;51.496;7.210;2023-02-24T15:16:24;26.80;;;18.00;;
2966;SDS011;1493;51.496;7.210;2023-02-24T15:18:56;20.03;;;14.40;;
2966;SDS011;1493;51.496;7.210;2023-02-24T15:21:27;22.23;;;16.60;;
2966;SDS011;1493;51.496;7.210;2023-02-24T15:23:59;24.60;;;17.17;;
2966;SDS011;1493;51.496;7.210;2023-02-24T15:26:30;26.30;;;17.10;;
2966;SDS011;1493;51.496;7.210;2023-02-24T15:28:59;23.13;;;14.03;;
2966;SDS011;1493;51.496;7.210;2023-02-24T15:31:38;22.20;;;15.70;;
2966;SDS011;1493;51.496;7.210;2023-02-24T15:34:12;24.27;;;16.07;;
2966;SDS011;1493;51.496;7.210;2023-02-24T15:36:45;22.00;;;16.47;;
2966;SDS011;1493;51.496;7.210;2023-02-24T15:39:15;16.20;;;13.90;;
2966;SDS011;1493;51.496;7.210;2023-02-24T15:41:49;23.50;;;15.50;;
2966;SDS011;1493;51.496;7.210;2023-02-24T15:44:22;24.87;;;14.90;;
2966;SDS011;1493;51.496;7.210;2023-02-24T15:46:51;25.67;;;16.80;;
2966;SDS011;1493;51.496;7.210;2023-02-24T15:49:18;23.73;;;13.87;;